Time;durP1;ratioP1;P1;durP2;ratioP2;P2;SDS_P1;SDS_P2;PMS_P1;PMS_P2;Temp;Humidity;BMP_temperature;BMP_pressure;BME280_temperature;BME280_humidity;BME280_pressure;Samples;Min_cycle;Max_cycle;Signal;HPM_P1;HPM_P2
2022/06/24 00:01:41;;;;;;;12.18;6.45;;;20.10;99.90;;;;;;4996185;28;20022;-81
2022/06/24 00:04:07;;;;;;;11.70;6.40;;;20.10;99.90;;;;;;4980216;28;20489;-81
2022/06/24 00:06:46;;;;;;;9.73;6.97;;;20.10;99.90;;;;;;4997663;28;20027;-81
2022/06/24 00:09:14;;;;;;;10.45;6.60;;;20.10;99.90;;;;;;4996597;28;20049;-81
2022/06/24 00:11:39;;;;;;;11.65;6.25;;;20.10;99.90;;;;;;4995978;28;20034;-80
2022/06/24 00:14:08;;;;;;;8.93;6.10;;;20.00;99.90;;;;;;4979918;28;20018;-80
2022/06/24 00:17:00;;;;;;;10.15;6.53;;;20.00;99.90;;;;;;4996009;28;20046;-80
2022/06/24 00:19:27;;;;;;;9.10;6.05;;;20.00;99.90;;;;;;5005963;28;20026;-80
2022/06/24 00:22:12;;;;;;;12.60;6.57;;;20.00;99.90;;;;;;4997161;28;20096;-80
2022/06/24 00:24:39;;;;;;;13.32;7.72;;;20.00;99.90;;;;;;4995884;28;20022;-80
2022/06/24 00:27:24;;;;;;;9.93;7.28;;;20.00;99.90;;;;;;4995600;28;20026;-80
2022/06/24 00:29:54;;;;;;;15.30;7.68;;;20.00;99.90;;;;;;4979586;28;20117;-80
2022/06/24 00:32:31;;;;;;;12.95;7.60;;;19.90;99.90;;;;;;4997022;28;20110;-81
2022/06/24 00:35:06;;;;;;;9.18;7.32;;;19.90;99.90;;;;;;4996701;28;20466;-82
2022/06/24 00:37:33;;;;;;;10.57;8.02;;;19.90;99.90;;;;;;4995453;28;20050;-82
2022/06/24 00:40:19;;;;;;;10.85;7.50;;;19.80;99.90;;;;;;4995806;28;20506;-82
2022/06/24 00:42:46;;;;;;;11.73;8.15;;;19.90;99.90;;;;;;4982943;28;20034;-81
2022/06/24 00:45:29;;;;;;;11.02;8.25;;;19.80;99.90;;;;;;4995726;28;20030;-82
2022/06/24 00:47:57;;;;;;;12.45;9.05;;;19.80;99.90;;;;;;4995483;28;20018;-82
2022/06/24 00:50:22;;;;;;;11.35;8.93;;;19.80;99.90;;;;;;4995225;28;20026;-81
2022/06/24 00:52:51;;;;;;;11.50;8.57;;;19.90;99.90;;;;;;4996872;28;20101;-81
2022/06/24 00:55:26;;;;;;;13.45;9.90;;;19.90;99.90;;;;;;4995097;28;20116;-82
2022/06/24 00:57:52;;;;;;;11.65;9.20;;;19.90;99.90;;;;;;4995223;28;20022;-82
2022/06/24 01:00:22;;;;;;;11.00;9.13;;;19.90;99.90;;;;;;4979022;28;20018;-82
2022/06/24 01:02:48;;;;;;;13.98;10.02;;;19.90;99.90;;;;;;4995324;28;20030;-82
2022/06/24 01:05:16;;;;;;;17.10;11.40;;;19.80;99.90;;;;;;4978747;28;20033;-81
2022/06/24 01:07:42;;;;;;;20.05;13.75;;;19.80;99.90;;;;;;4995114;28;20433;-82
2022/06/24 01:10:09;;;;;;;17.17;12.95;;;19.80;99.90;;;;;;4979207;28;20100;-82
2022/06/24 01:12:36;;;;;;;20.00;15.82;;;19.80;99.90;;;;;;4978477;28;20026;-81
2022/06/24 01:15:03;;;;;;;19.77;15.13;;;19.70;99.90;;;;;;4995015;28;20149;-83
2022/06/24 01:17:30;;;;;;;20.27;13.27;;;19.80;99.90;;;;;;4995134;28;20038;-81
2022/06/24 01:19:58;;;;;;;19.80;14.98;;;19.60;99.90;;;;;;5011186;28;20033;-82
2022/06/24 01:22:26;;;;;;;22.77;16.83;;;19.60;99.90;;;;;;4978720;28;20023;-82
2022/06/24 01:24:53;;;;;;;21.98;16.90;;;19.60;99.90;;;;;;4995135;28;20049;-83
2022/06/24 01:27:19;;;;;;;25.58;18.80;;;19.60;99.90;;;;;;4994983;28;20078;-83
2022/06/24 01:29:46;;;;;;;24.85;18.85;;;19.60;99.90;;;;;;4994888;28;20025;-82
2022/06/24 01:32:12;;;;;;;27.02;21.25;;;19.50;99.90;;;;;;4996017;28;20026;-83
2022/06/24 01:34:38;;;;;;;21.15;17.10;;;19.50;99.90;;;;;;4994929;28;20030;-82
2022/06/24 01:37:04;;;;;;;20.27;16.63;;;19.40;99.90;;;;;;4994545;28;20037;-83
2022/06/24 01:39:35;;;;;;;19.90;15.80;;;19.40;99.90;;;;;;4994835;28;20052;-82
2022/06/24 01:42:03;;;;;;;20.45;15.77;;;19.40;99.90;;;;;;4979189;28;20049;-82
2022/06/24 01:44:29;;;;;;;17.77;13.88;;;19.40;99.90;;;;;;4962695;28;20042;-82
2022/06/24 01:46:55;;;;;;;17.48;13.10;;;19.30;99.90;;;;;;4994262;28;20493;-81
2022/06/24 01:49:21;;;;;;;17.70;12.93;;;19.30;99.90;;;;;;4978306;28;20102;-81
2022/06/24 01:51:49;;;;;;;17.85;12.75;;;19.30;99.90;;;;;;5010918;28;20029;-81
2022/06/24 01:54:15;;;;;;;17.88;13.48;;;19.30;99.90;;;;;;4995389;28;20447;-82
2022/06/24 01:56:44;;;;;;;22.05;14.32;;;19.20;99.90;;;;;;4995299;28;20030;-82
2022/06/24 01:59:10;;;;;;;17.98;14.88;;;19.20;99.90;;;;;;4995767;28;20099;-82
2022/06/24 02:01:36;;;;;;;23.65;17.50;;;19.30;99.90;;;;;;4978137;28;20455;-81
2022/06/24 02:04:01;;;;;;;23.40;16.45;;;19.20;99.90;;;;;;4978442;28;20033;-82
2022/06/24 02:06:27;;;;;;;22.67;18.33;;;19.20;99.90;;;;;;5010479;28;20109;-82
2022/06/24 02:08:53;;;;;;;21.98;15.25;;;19.20;99.90;;;;;;4977608;28;20060;-82
2022/06/24 02:14:09;;;;;;;11.45;9.25;;;19.20;99.90;;;;;;5006420;28;20093;-82
2022/06/24 02:16:37;;;;;;;12.57;8.30;;;19.10;99.90;;;;;;4993740;28;20046;-83
2022/06/24 02:19:03;;;;;;;10.73;7.57;;;19.00;99.90;;;;;;4993420;28;20022;-82
2022/06/24 02:21:29;;;;;;;10.75;6.72;;;19.00;99.90;;;;;;4995136;28;20089;-82
2022/06/24 02:23:55;;;;;;;9.15;6.85;;;18.90;99.90;;;;;;4993040;28;20029;-81
2022/06/24 02:26:21;;;;;;;12.32;7.70;;;18.90;99.90;;;;;;4993620;28;20415;-82
2022/06/24 02:28:47;;;;;;;16.63;6.93;;;19.00;99.90;;;;;;4993875;28;20530;-84
2022/06/24 02:31:13;;;;;;;11.65;6.57;;;19.00;99.90;;;;;;4995088;28;20030;-82
2022/06/24 02:33:39;;;;;;;14.00;7.63;;;19.00;99.90;;;;;;4993468;28;20025;-81
2022/06/24 02:36:06;;;;;;;9.40;6.68;;;18.90;99.90;;;;;;4976925;28;20034;-82
2022/06/24 02:38:34;;;;;;;10.00;6.70;;;18.90;99.90;;;;;;4992984;28;20462;-81
2022/06/24 02:41:04;;;;;;;9.45;6.90;;;18.80;99.90;;;;;;4993658;28;20046;-82
2022/06/24 02:43:30;;;;;;;10.10;5.88;;;18.80;99.90;;;;;;4977515;28;20026;-82
2022/06/24 02:46:06;;;;;;;9.60;5.38;;;18.80;99.90;;;;;;4993470;28;20076;-82
2022/06/24 02:48:34;;;;;;;7.43;4.60;;;18.80;99.90;;;;;;4993215;28;20015;-81
2022/06/24 02:51:07;;;;;;;8.63;4.80;;;18.80;99.90;;;;;;4993239;28;20030;-82
2022/06/24 02:53:33;;;;;;;8.88;4.50;;;18.80;99.90;;;;;;4993285;28;20014;-82
2022/06/24 02:56:01;;;;;;;7.97;4.18;;;18.70;99.90;;;;;;4993193;28;20034;-81
2022/06/24 02:58:27;;;;;;;7.00;4.43;;;18.70;99.90;;;;;;4993101;28;20113;-82
2022/06/24 03:00:53;;;;;;;8.77;5.05;;;18.60;99.90;;;;;;4994626;28;20113;-83
2022/06/24 03:03:21;;;;;;;8.65;4.68;;;18.60;99.90;;;;;;4976897;28;20027;-81
2022/06/24 03:05:47;;;;;;;7.97;4.68;;;18.50;99.90;;;;;;4993175;28;20014;-82
2022/06/24 03:08:14;;;;;;;7.10;4.25;;;18.50;99.90;;;;;;4993039;28;20030;-82
2022/06/24 03:10:40;;;;;;;4.88;3.40;;;18.40;99.90;;;;;;4976731;28;20121;-82
2022/06/24 03:13:06;;;;;;;5.00;2.95;;;18.40;99.90;;;;;;4976859;28;20109;-82
2022/06/24 03:15:32;;;;;;;4.57;2.40;;;18.30;99.90;;;;;;4994130;28;20160;-82
2022/06/24 03:17:58;;;;;;;3.80;2.40;;;18.30;99.90;;;;;;4992623;28;20483;-81
2022/06/24 03:20:23;;;;;;;6.20;2.42;;;18.30;99.90;;;;;;4976528;28;20109;-82
2022/06/24 03:22:50;;;;;;;3.83;2.25;;;18.20;99.90;;;;;;4992918;28;20029;-81
2022/06/24 03:25:15;;;;;;;4.38;2.05;;;18.20;99.90;;;;;;4992416;28;20485;-82
2022/06/24 03:27:41;;;;;;;4.15;2.10;;;18.20;99.90;;;;;;4994378;28;20030;-83
2022/06/24 03:30:09;;;;;;;3.63;2.13;;;18.10;99.90;;;;;;4994092;28;20466;-82
2022/06/24 03:32:35;;;;;;;5.95;2.63;;;18.10;99.90;;;;;;4992314;28;20026;-82
2022/06/24 03:35:01;;;;;;;4.50;2.00;;;18.00;99.90;;;;;;4994192;28;20484;-82
2022/06/24 03:37:29;;;;;;;4.05;2.20;;;18.00;99.90;;;;;;4992848;28;20406;-82
2022/06/24 03:39:55;;;;;;;4.30;2.17;;;18.00;99.90;;;;;;4993816;28;20097;-82
2022/06/24 03:42:20;;;;;;;5.22;2.20;;;18.00;99.90;;;;;;4992929;28;20116;-82
2022/06/24 03:44:46;;;;;;;5.82;2.42;;;18.00;99.90;;;;;;4992935;28;20058;-82
2022/06/24 03:47:12;;;;;;;6.15;2.90;;;18.00;99.90;;;;;;4992507;28;20083;-82
2022/06/24 03:49:37;;;;;;;5.28;3.08;;;17.90;99.90;;;;;;4992540;28;20077;-83
2022/06/24 03:52:03;;;;;;;5.93;3.15;;;17.90;99.90;;;;;;4990533;28;20026;-82
2022/06/24 03:54:29;;;;;;;5.68;3.00;;;17.90;99.90;;;;;;5007026;28;20060;-81
2022/06/24 03:56:55;;;;;;;5.63;2.70;;;17.90;99.90;;;;;;5011669;28;20069;-82
2022/06/24 03:59:20;;;;;;;4.85;2.60;;;17.90;99.90;;;;;;5013378;28;20115;-82
2022/06/24 04:01:46;;;;;;;6.07;3.08;;;17.90;99.90;;;;;;4995690;28;20030;-83
2022/06/24 04:04:12;;;;;;;6.90;2.50;;;17.90;99.90;;;;;;5012337;28;20030;-83
2022/06/24 04:06:37;;;;;;;4.03;2.38;;;17.90;99.90;;;;;;5012089;28;20022;-83
2022/06/24 04:09:03;;;;;;;5.18;2.08;;;17.80;99.90;;;;;;5011872;28;20024;-81
2022/06/24 04:11:29;;;;;;;5.18;2.60;;;17.80;99.90;;;;;;5008770;28;20045;-81
2022/06/24 04:13:55;;;;;;;5.53;2.60;;;17.80;99.90;;;;;;5004340;28;20026;-83
2022/06/24 04:16:20;;;;;;;5.78;3.15;;;17.80;99.90;;;;;;5011540;28;20046;-81
2022/06/24 04:18:47;;;;;;;4.75;2.65;;;17.80;99.90;;;;;;5011697;28;20454;-81
2022/06/24 04:21:15;;;;;;;5.25;2.67;;;17.70;99.90;;;;;;5011790;28;20075;-82
2022/06/24 04:23:41;;;;;;;4.38;2.35;;;17.70;99.90;;;;;;5011893;28;20026;-82
2022/06/24 04:26:07;;;;;;;6.10;2.53;;;17.70;99.90;;;;;;5013154;28;20056;-82
2022/06/24 04:28:33;;;;;;;3.72;2.15;;;17.70;99.90;;;;;;5012145;28;20030;-82
2022/06/24 04:30:59;;;;;;;7.75;2.85;;;17.80;99.90;;;;;;5011829;28;20367;-82
2022/06/24 04:33:25;;;;;;;4.22;2.72;;;17.80;99.90;;;;;;5012183;28;20022;-81
2022/06/24 04:35:51;;;;;;;6.25;2.83;;;17.80;99.90;;;;;;4995310;28;20420;-82
2022/06/24 04:38:17;;;;;;;4.75;2.70;;;17.80;99.90;;;;;;5011770;28;20367;-83
2022/06/24 04:40:42;;;;;;;9.00;3.63;;;17.80;99.90;;;;;;5011954;28;20057;-82
2022/06/24 04:43:08;;;;;;;9.88;4.25;;;17.90;99.90;;;;;;5011610;28;20061;-83
2022/06/24 04:45:35;;;;;;;10.35;4.10;;;17.90;99.90;;;;;;5011740;28;20077;-82
2022/06/24 04:48:01;;;;;;;11.63;4.82;;;17.90;99.90;;;;;;5015303;28;20022;-83
2022/06/24 04:50:26;;;;;;;11.57;5.70;;;17.90;99.90;;;;;;4999141;28;20022;-82
2022/06/24 04:52:52;;;;;;;13.15;5.47;;;17.90;99.90;;;;;;5014813;28;20104;-82
2022/06/24 04:55:19;;;;;;;13.52;6.05;;;17.90;99.90;;;;;;4998611;28;20022;-83
2022/06/24 04:57:45;;;;;;;14.32;6.47;;;18.00;99.90;;;;;;5014788;28;20028;-82
2022/06/24 05:00:11;;;;;;;14.43;5.95;;;18.00;99.90;;;;;;4998711;28;20026;-83
2022/06/24 05:02:37;;;;;;;13.23;7.05;;;18.00;99.90;;;;;;4998800;28;20128;-83
2022/06/24 05:05:03;;;;;;;17.02;6.57;;;18.00;99.90;;;;;;4998612;28;20470;-83
2022/06/24 05:07:29;;;;;;;14.52;5.70;;;18.00;99.90;;;;;;5014245;28;20040;-83
2022/06/24 05:09:56;;;;;;;10.70;5.25;;;18.10;99.90;;;;;;5014763;28;20161;-83
2022/06/24 05:12:22;;;;;;;9.43;4.35;;;18.10;99.90;;;;;;4998457;28;20574;-83
2022/06/24 05:14:47;;;;;;;9.15;4.03;;;18.10;99.90;;;;;;5014437;28;20029;-83
2022/06/24 05:17:13;;;;;;;9.95;4.25;;;18.10;99.90;;;;;;5014128;28;20045;-82
2022/06/24 05:19:38;;;;;;;10.82;4.13;;;18.10;99.90;;;;;;5014429;28;20080;-83
2022/06/24 05:22:04;;;;;;;9.82;4.40;;;18.10;99.90;;;;;;4998394;28;20378;-83
2022/06/24 05:24:30;;;;;;;7.75;4.15;;;18.10;99.90;;;;;;5014365;28;20474;-83
2022/06/24 05:26:56;;;;;;;9.88;4.60;;;18.10;99.90;;;;;;5011259;28;20096;-83
2022/06/24 05:29:22;;;;;;;10.05;4.63;;;18.10;99.90;;;;;;4992783;28;20489;-83
2022/06/24 05:31:48;;;;;;;11.32;3.90;;;18.10;99.90;;;;;;4994707;28;20022;-83
2022/06/24 05:34:14;;;;;;;7.72;3.60;;;18.10;99.90;;;;;;4994514;28;20045;-83
2022/06/24 05:36:40;;;;;;;6.97;3.33;;;18.10;99.90;;;;;;5010843;28;20360;-82
2022/06/24 05:39:06;;;;;;;6.88;3.38;;;18.10;99.90;;;;;;4994886;28;20411;-83
2022/06/24 05:41:33;;;;;;;5.53;2.92;;;18.10;99.90;;;;;;5000465;28;20026;-82
2022/06/24 05:44:00;;;;;;;4.68;3.00;;;18.10;99.90;;;;;;5014089;28;20120;-83
2022/06/24 05:46:25;;;;;;;5.72;3.10;;;18.10;99.90;;;;;;4997606;28;20018;-82
2022/06/24 05:48:51;;;;;;;6.07;3.33;;;18.10;99.90;;;;;;4997944;28;20359;-83
2022/06/24 05:51:17;;;;;;;9.50;3.53;;;18.10;99.90;;;;;;5014237;28;20125;-82
2022/06/24 05:56:29;;;;;;;6.22;3.63;;;18.10;99.90;;;;;;5013851;28;20414;-82
2022/06/24 05:58:55;;;;;;;6.45;3.47;;;18.10;99.90;;;;;;5011689;28;20018;-82
2022/06/24 06:01:21;;;;;;;7.18;3.45;;;18.10;99.90;;;;;;4995971;28;20033;-82
2022/06/24 06:03:47;;;;;;;8.30;4.25;;;18.10;99.90;;;;;;4995976;28;20105;-82
2022/06/24 06:06:13;;;;;;;5.70;3.85;;;18.10;99.90;;;;;;5014864;28;20048;-82
2022/06/24 06:08:39;;;;;;;6.93;3.85;;;18.20;99.90;;;;;;4997014;28;20037;-81
2022/06/24 06:11:16;;;;;;;7.57;3.90;;;18.20;99.90;;;;;;5011474;28;20038;-80
2022/06/24 06:13:43;;;;;;;6.85;4.20;;;18.20;99.90;;;;;;5014510;28;20029;-81
2022/06/24 06:16:09;;;;;;;7.85;4.40;;;18.20;99.90;;;;;;5014013;28;20054;-81
2022/06/24 06:18:36;;;;;;;6.40;4.25;;;18.30;99.90;;;;;;5009221;28;20099;-81
2022/06/24 06:21:08;;;;;;;7.78;4.18;;;18.20;99.90;;;;;;5009502;28;20014;-81
2022/06/24 06:23:36;;;;;;;8.55;4.85;;;18.30;99.90;;;;;;5009764;28;20018;-82
2022/06/24 06:26:04;;;;;;;7.72;4.60;;;18.30;99.90;;;;;;5008610;28;20032;-81
2022/06/24 06:28:31;;;;;;;7.97;4.90;;;18.30;99.90;;;;;;4997539;28;20042;-80
2022/06/24 06:30:58;;;;;;;8.05;4.65;;;18.40;99.90;;;;;;4994774;28;20463;-81
2022/06/24 06:33:24;;;;;;;7.45;4.47;;;18.40;99.90;;;;;;4987334;28;20026;-81
2022/06/24 06:36:01;;;;;;;6.90;4.32;;;18.40;99.90;;;;;;4989451;28;20133;-82
2022/06/24 06:38:27;;;;;;;7.75;4.47;;;18.40;99.90;;;;;;5004536;28;20014;-82
2022/06/24 06:40:53;;;;;;;8.27;4.57;;;18.50;99.90;;;;;;4984779;28;20466;-80
2022/06/24 06:43:19;;;;;;;7.53;4.60;;;18.50;99.90;;;;;;4987158;28;20070;-81
2022/06/24 06:45:44;;;;;;;7.80;4.15;;;18.50;99.90;;;;;;4968130;28;20057;-81
2022/06/24 06:48:10;;;;;;;7.50;4.68;;;18.60;99.90;;;;;;4968767;28;20015;-82
2022/06/24 06:50:35;;;;;;;9.32;4.50;;;18.60;99.90;;;;;;4986633;28;20037;-81
2022/06/24 06:53:02;;;;;;;8.68;4.65;;;18.60;99.90;;;;;;4987611;28;20029;-81
2022/06/24 06:55:27;;;;;;;6.95;3.85;;;18.60;99.90;;;;;;5012670;28;20472;-82
2022/06/24 06:57:53;;;;;;;7.65;4.43;;;18.70;99.90;;;;;;4996221;28;20116;-82
2022/06/24 07:00:20;;;;;;;6.45;4.13;;;18.60;99.90;;;;;;4996200;28;20034;-81
2022/06/24 07:02:46;;;;;;;6.97;4.35;;;18.60;99.90;;;;;;4996607;28;20492;-82
2022/06/24 07:05:12;;;;;;;7.22;4.07;;;18.60;99.90;;;;;;5013836;28;20026;-81
2022/06/24 07:07:37;;;;;;;7.00;4.35;;;18.60;99.90;;;;;;4996030;28;20030;-82
2022/06/24 07:10:04;;;;;;;6.30;3.88;;;18.60;99.90;;;;;;4995932;28;20052;-81
2022/06/24 07:12:29;;;;;;;7.78;3.92;;;18.70;99.90;;;;;;5012562;28;20471;-81
2022/06/24 07:14:55;;;;;;;5.35;3.22;;;18.70;99.90;;;;;;4996097;28;20022;-80
2022/06/24 07:17:21;;;;;;;6.40;4.35;;;18.70;99.90;;;;;;5013485;28;20054;-81
2022/06/24 07:19:47;;;;;;;7.18;4.22;;;18.70;99.90;;;;;;4995511;28;20061;-82
2022/06/24 07:22:13;;;;;;;7.38;4.43;;;18.70;99.90;;;;;;5012399;28;20022;-82
2022/06/24 07:24:40;;;;;;;8.95;4.68;;;18.70;99.90;;;;;;5012236;28;20092;-81
2022/06/24 07:27:08;;;;;;;8.25;5.53;;;18.70;99.90;;;;;;5012274;28;20088;-81
2022/06/24 07:29:35;;;;;;;8.52;5.50;;;18.70;99.90;;;;;;4995959;28;20044;-80
2022/06/24 07:32:05;;;;;;;8.88;5.90;;;18.80;99.90;;;;;;4996077;28;20121;-81
2022/06/24 07:34:32;;;;;;;8.23;5.25;;;18.80;99.90;;;;;;5012527;28;20030;-81
2022/06/24 07:36:58;;;;;;;8.00;5.63;;;18.80;99.90;;;;;;4995729;28;20045;-81
2022/06/24 07:39:24;;;;;;;8.18;5.60;;;18.90;99.90;;;;;;4995115;28;20084;-81
2022/06/24 07:41:50;;;;;;;10.43;5.82;;;18.90;99.90;;;;;;5011758;28;20474;-81
2022/06/24 07:44:16;;;;;;;9.05;5.57;;;18.90;99.90;;;;;;4995422;28;20022;-81
2022/06/24 07:46:42;;;;;;;8.52;5.78;;;19.00;99.90;;;;;;4995703;28;20124;-81
2022/06/24 07:49:07;;;;;;;8.20;5.88;;;19.00;99.90;;;;;;4995880;28;20084;-81
2022/06/24 07:51:33;;;;;;;9.70;7.15;;;19.00;99.90;;;;;;5011773;28;20431;-81
2022/06/24 07:53:59;;;;;;;9.80;7.30;;;19.10;99.90;;;;;;5012050;28;20026;-81
2022/06/24 07:59:08;;;;;;;;;;;19.10;99.90;;;;;;5012922;28;20032;-81
2022/06/24 08:01:34;;;;;;;10.02;7.18;;;19.20;99.90;;;;;;5012256;28;20494;-81
2022/06/24 08:04:00;;;;;;;8.57;6.78;;;19.30;99.90;;;;;;4995503;28;20026;-82
2022/06/24 08:06:26;;;;;;;10.50;8.07;;;19.40;99.90;;;;;;5011454;28;20065;-82
2022/06/24 08:08:52;;;;;;;11.45;7.40;;;19.50;99.90;;;;;;5010110;28;20061;-82
2022/06/24 08:11:17;;;;;;;10.98;8.00;;;19.50;99.90;;;;;;5011777;28;20098;-82
2022/06/24 08:13:43;;;;;;;10.35;7.82;;;19.60;99.90;;;;;;5013151;28;20109;-81
2022/06/24 08:16:09;;;;;;;11.95;8.43;;;19.60;99.90;;;;;;4978886;28;20042;-80
2022/06/24 08:18:35;;;;;;;11.63;8.05;;;19.70;99.90;;;;;;4994517;28;20445;-80
2022/06/24 08:21:00;;;;;;;11.85;9.00;;;19.70;99.90;;;;;;5012478;28;20018;-81
2022/06/24 08:23:26;;;;;;;10.52;8.15;;;19.80;99.90;;;;;;4995557;28;20463;-82
2022/06/24 08:25:52;;;;;;;9.35;7.65;;;19.90;99.90;;;;;;5012307;28;20069;-82
2022/06/24 08:28:17;;;;;;;10.88;8.05;;;19.90;99.90;;;;;;4995502;28;20454;-82
2022/06/24 08:30:43;;;;;;;10.57;8.55;;;19.90;99.90;;;;;;5012311;28;20084;-82
2022/06/24 08:33:09;;;;;;;10.20;8.15;;;20.00;99.90;;;;;;5012283;28;20054;-82
2022/06/24 08:35:35;;;;;;;9.50;8.15;;;20.00;99.90;;;;;;4996885;28;20058;-82
2022/06/24 08:38:01;;;;;;;12.35;8.07;;;20.10;99.90;;;;;;4995717;28;20084;-85
2022/06/24 08:40:28;;;;;;;11.25;7.78;;;20.10;99.90;;;;;;5012510;28;20406;-85
2022/06/24 08:42:58;;;;;;;10.25;7.85;;;20.20;99.90;;;;;;5012201;28;20366;-84
2022/06/24 08:45:25;;;;;;;10.90;7.88;;;20.30;99.90;;;;;;5015569;28;20042;-85
2022/06/24 08:47:51;;;;;;;12.48;8.50;;;20.30;99.90;;;;;;5015629;28;20370;-85
2022/06/24 08:50:18;;;;;;;12.45;8.52;;;20.40;99.90;;;;;;5014570;28;20026;-84
2022/06/24 08:52:52;;;;;;;11.98;8.55;;;20.40;99.90;;;;;;5015896;28;20026;-85
2022/06/24 08:55:20;;;;;;;11.95;9.15;;;20.40;99.90;;;;;;5016213;28;20022;-85
2022/06/24 08:57:46;;;;;;;10.40;8.73;;;20.50;99.90;;;;;;5016958;28;20072;-86
2022/06/24 09:00:13;;;;;;;11.23;8.85;;;20.50;99.90;;;;;;4999871;28;20433;-84
2022/06/24 09:02:39;;;;;;;10.00;7.82;;;20.50;99.90;;;;;;5016549;28;20017;-84
2022/06/24 09:05:12;;;;;;;9.80;7.82;;;20.60;99.90;;;;;;4999041;28;20018;-83
2022/06/24 09:07:38;;;;;;;9.88;8.13;;;20.60;99.90;;;;;;5015239;28;20063;-83
2022/06/24 09:10:10;;;;;;;10.90;7.85;;;20.70;99.90;;;;;;5014911;28;20357;-83
2022/06/24 09:12:40;;;;;;;10.98;8.93;;;20.70;99.90;;;;;;5015159;28;20133;-83
2022/06/24 09:15:08;;;;;;;11.63;9.27;;;20.70;99.90;;;;;;5016751;28;20088;-83
2022/06/24 09:17:36;;;;;;;11.05;8.65;;;20.80;99.90;;;;;;5016290;28;20133;-83
2022/06/24 09:20:16;;;;;;;11.02;8.73;;;20.80;99.90;;;;;;4998355;28;20083;-83
2022/06/24 09:22:42;;;;;;;11.80;9.90;;;20.80;99.90;;;;;;4998437;28;20026;-84
2022/06/24 09:25:08;;;;;;;10.98;9.05;;;20.80;99.90;;;;;;5015002;28;20362;-84
2022/06/24 09:27:58;;;;;;;11.77;9.43;;;20.90;99.90;;;;;;5014678;28;20025;-84
2022/06/24 09:30:34;;;;;;;10.60;8.82;;;20.90;99.90;;;;;;5009747;28;20033;-84
2022/06/24 09:33:01;;;;;;;11.40;8.23;;;20.90;99.90;;;;;;5014273;28;20101;-84
2022/06/24 09:35:27;;;;;;;12.05;9.00;;;20.80;99.90;;;;;;4997535;28;20365;-82
2022/06/24 09:37:52;;;;;;;10.00;8.80;;;20.80;99.90;;;;;;5013747;28;20029;-83
2022/06/24 09:40:21;;;;;;;11.20;9.02;;;20.80;99.90;;;;;;4997763;28;20025;-84
2022/06/24 09:42:55;;;;;;;10.23;8.45;;;20.90;99.90;;;;;;5014922;28;20101;-83
2022/06/24 09:45:21;;;;;;;10.95;9.02;;;20.90;99.90;;;;;;5013893;28;20030;-84
2022/06/24 09:47:51;;;;;;;16.10;8.43;;;21.00;99.90;;;;;;5014990;28;20058;-84
2022/06/24 09:50:19;;;;;;;11.30;9.20;;;21.00;99.90;;;;;;5014202;28;20022;-84
2022/06/24 09:52:45;;;;;;;10.98;9.48;;;21.00;99.90;;;;;;5015371;28;20026;-83
2022/06/24 09:55:11;;;;;;;11.90;10.05;;;21.10;99.90;;;;;;4998330;28;20469;-84
2022/06/24 09:57:39;;;;;;;11.82;9.30;;;21.20;99.90;;;;;;5015003;28;20083;-83
2022/06/24 10:02:50;;;;;;;13.00;9.85;;;21.20;99.90;;;;;;5000336;28;20382;-83
2022/06/24 10:05:18;;;;;;;13.38;10.23;;;21.30;99.90;;;;;;5013767;28;20029;-83
2022/06/24 10:07:47;;;;;;;10.65;9.50;;;21.30;99.90;;;;;;5013848;28;20047;-83
2022/06/24 10:10:15;;;;;;;11.82;9.57;;;21.30;99.90;;;;;;5014712;28;20018;-83
2022/06/24 10:12:50;;;;;;;12.02;10.10;;;21.40;99.90;;;;;;5013451;28;20053;-84
2022/06/24 10:15:18;;;;;;;11.73;9.13;;;21.50;99.90;;;;;;5013491;28;20020;-84
2022/06/24 10:17:47;;;;;;;12.05;10.05;;;21.50;99.90;;;;;;5013347;28;20081;-83
2022/06/24 10:20:15;;;;;;;12.18;10.32;;;21.60;99.90;;;;;;5013398;28;20109;-84
2022/06/24 10:22:51;;;;;;;11.48;10.23;;;21.60;99.90;;;;;;5013302;28;20022;-85
2022/06/24 10:25:47;;;;;;;14.68;10.90;;;21.60;99.90;;;;;;5013632;28;20543;-83
2022/06/24 10:28:13;;;;;;;14.00;10.07;;;21.70;99.90;;;;;;5013577;28;20049;-84
2022/06/24 10:30:39;;;;;;;13.88;11.50;;;21.80;99.90;;;;;;5013301;28;20045;-84
2022/06/24 10:33:11;;;;;;;12.98;9.93;;;21.80;99.90;;;;;;5013249;28;20037;-84
2022/06/24 10:35:56;;;;;;;12.73;10.90;;;21.80;99.90;;;;;;5013020;28;20029;-83
2022/06/24 10:38:22;;;;;;;12.40;10.60;;;22.00;99.90;;;;;;5013276;28;20058;-84
2022/06/24 10:40:50;;;;;;;13.65;10.70;;;22.00;99.90;;;;;;4996905;28;20501;-86
2022/06/24 10:43:33;;;;;;;13.82;10.43;;;22.10;99.90;;;;;;5013128;28;20495;-86
2022/06/24 10:46:17;;;;;;;11.85;10.52;;;22.20;99.90;;;;;;5013318;28;20014;-84
2022/06/24 10:48:43;;;;;;;11.65;10.40;;;22.30;99.90;;;;;;5012975;28;20458;-85
2022/06/24 10:51:13;;;;;;;11.65;10.40;;;22.40;99.90;;;;;;5014588;28;20122;-84
2022/06/24 10:54:14;;;;;;;12.05;10.80;;;22.50;99.90;;;;;;5013277;28;20018;-83
2022/06/24 10:56:44;;;;;;;11.02;9.55;;;22.60;99.90;;;;;;4976070;28;20150;-84
2022/06/24 10:59:12;;;;;;;10.65;9.48;;;22.80;99.90;;;;;;5009024;28;20108;-84
2022/06/24 11:01:47;;;;;;;11.48;10.18;;;22.90;99.90;;;;;;4996741;28;20459;-82
2022/06/24 11:04:21;;;;;;;9.88;8.85;;;23.00;99.90;;;;;;5012722;28;20103;-84
2022/06/24 11:07:15;;;;;;;9.85;8.07;;;23.10;99.90;;;;;;5012565;28;20014;-83
2022/06/24 11:09:43;;;;;;;8.02;7.22;;;23.30;99.90;;;;;;5012554;28;20053;-83
2022/06/24 11:12:31;;;;;;;10.70;6.95;;;23.40;99.90;;;;;;4996785;28;20026;-85
2022/06/24 11:14:57;;;;;;;9.07;7.43;;;23.50;99.90;;;;;;4996309;28;20361;-83
2022/06/24 11:17:29;;;;;;;9.25;6.70;;;23.60;99.90;;;;;;5013624;28;20046;-84
2022/06/24 11:19:55;;;;;;;6.80;5.80;;;23.70;99.90;;;;;;5014031;28;20029;-84
2022/06/24 11:22:26;;;;;;;9.52;5.82;;;23.80;99.90;;;;;;4996311;28;20485;-86
2022/06/24 11:24:51;;;;;;;8.10;4.57;;;23.80;99.90;;;;;;5012572;28;20113;-85
2022/06/24 11:27:17;;;;;;;7.82;6.28;;;23.90;99.90;;;;;;5012064;28;20466;-84
2022/06/24 11:29:57;;;;;;;8.25;5.85;;;24.00;99.90;;;;;;4995977;28;20446;-84
2022/06/24 11:32:24;;;;;;;6.25;5.03;;;24.20;99.90;;;;;;5014312;28;20025;-85
2022/06/24 11:34:50;;;;;;;6.60;4.82;;;24.50;99.90;;;;;;5012607;28;20025;-83
2022/06/24 11:37:23;;;;;;;4.55;3.75;;;24.70;99.90;;;;;;5012392;28;20026;-84
2022/06/24 11:39:55;;;;;;;4.60;3.60;;;25.00;99.90;;;;;;5012289;28;20021;-84
2022/06/24 11:42:22;;;;;;;9.32;4.25;;;25.10;99.90;;;;;;5012271;28;20030;-84
2022/06/24 11:44:51;;;;;;;5.30;4.38;;;25.20;99.90;;;;;;5012579;28;20049;-84
2022/06/24 11:47:28;;;;;;;6.75;4.60;;;25.40;99.90;;;;;;5012770;28;20024;-85
2022/06/24 11:49:54;;;;;;;5.28;4.15;;;25.40;99.90;;;;;;5013781;28;20018;-85
2022/06/24 11:52:19;;;;;;;4.97;4.18;;;25.40;99.90;;;;;;5012065;28;20030;-83
2022/06/24 11:54:45;;;;;;;6.90;4.95;;;25.30;99.90;;;;;;5013727;28;20026;-85
2022/06/24 11:57:12;;;;;;;7.07;5.50;;;25.10;99.90;;;;;;5000351;28;20091;-83
2022/06/24 11:59:38;;;;;;;9.30;7.43;;;25.00;99.90;;;;;;5016383;28;20018;-85
2022/06/24 12:02:06;;;;;;;10.60;9.50;;;24.80;99.90;;;;;;5000066;28;20477;-85
2022/06/24 12:04:32;;;;;;;9.30;8.27;;;24.60;99.90;;;;;;5000439;28;20030;-86
2022/06/24 12:07:01;;;;;;;10.18;8.77;;;24.50;99.90;;;;;;5000429;28;20084;-85
2022/06/24 12:09:27;;;;;;;9.38;8.38;;;24.30;99.90;;;;;;5016080;28;20041;-85
2022/06/24 12:11:52;;;;;;;8.95;7.93;;;24.10;99.90;;;;;;4999810;28;20034;-84
2022/06/24 12:14:19;;;;;;;10.43;7.18;;;23.90;99.90;;;;;;5000044;28;20530;-83
2022/06/24 12:16:54;;;;;;;7.18;6.20;;;23.70;99.90;;;;;;5016136;28;20493;-83
2022/06/24 12:19:19;;;;;;;7.60;5.43;;;23.40;99.90;;;;;;5015763;28;20425;-83
2022/06/24 12:21:45;;;;;;;5.57;4.70;;;23.30;99.90;;;;;;4998974;28;20026;-83
2022/06/24 12:24:25;;;;;;;6.18;3.78;;;23.20;99.90;;;;;;5016087;28;20022;-85
2022/06/24 12:26:58;;;;;;;4.90;3.92;;;23.30;99.90;;;;;;5017070;28;20026;-83
2022/06/24 12:29:27;;;;;;;5.32;4.35;;;23.40;99.90;;;;;;5015759;28;20021;-83
2022/06/24 12:31:52;;;;;;;6.50;4.65;;;23.50;99.90;;;;;;5015759;28;20025;-84
2022/06/24 12:34:29;;;;;;;5.90;5.20;;;23.60;99.90;;;;;;5016628;28;20018;-84
2022/06/24 12:36:57;;;;;;;6.75;4.90;;;23.70;99.90;;;;;;5015768;28;20033;-84
2022/06/24 12:39:40;;;;;;;4.65;3.20;;;23.80;99.90;;;;;;5016655;28;20032;-84
2022/06/24 12:42:07;;;;;;;3.33;2.47;;;24.10;99.90;;;;;;5016436;28;20060;-85
2022/06/24 12:44:43;;;;;;;2.90;1.50;;;24.40;99.90;;;;;;5015311;28;20276;-84
2022/06/24 12:52:43;;;;;;;2.20;1.20;;;25.80;99.90;;;;;;5015855;28;20485;-85
2022/06/24 12:55:12;;;;;;;1.88;1.00;;;26.10;98.50;;;;;;5015199;28;20172;-83
2022/06/24 12:57:38;;;;;;;2.22;1.30;;;26.30;97.50;;;;;;5015409;28;20026;-84
2022/06/24 13:00:08;;;;;;;2.03;1.23;;;26.30;96.70;;;;;;5015356;28;20373;-83
2022/06/24 13:02:35;;;;;;;2.55;1.02;;;26.30;96.10;;;;;;5015578;28;20022;-84